Jepson Prairie Reserve, California Weather observations

Data are for 10 minute period ending at time listed.
 Day   Time   Solar   Ave.   Ave.  Ave.  Vector  Max.   Baro.   Total    
  of    of     Rad.   Air    Rel.  Wind   Wind   Wind  Press.  Precip.   
Year   Day            Temp.  Hum.  Speed  Dir.   Gust                    
2016   (PST)  Kw/m2    F      %     mph   deg.    mph    mb.     in.     
-------------------------------------------------------------------------
  38    5:10   0.00   41.7    94    2.5   294     4.2   1023.4    0.00 
  38    5:20   0.00   39.6    95    1.4   297     3.0   1023.4    0.00 
  38    5:30   0.00   39.9    96    1.5   325     2.5   1023.4    0.00 
  38    5:40   0.00   41.8    98    3.5   316     5.2   1023.4    0.00 
  38    5:50   0.00   43.0    97    5.1   335     6.1   1023.4    0.00 
  38    6:00   0.00   43.6    96    6.1   338     7.9   1023.4    0.00 
  38    6:10   0.00   44.4    92    5.5   336     8.1   1023.4    0.00 
  38    6:20   0.00   44.9    90    3.2   330     4.7   1023.4    0.00 
  38    6:30   0.00   44.9    88    2.9   336     3.4   1023.4    0.00 
  38    6:40   0.00   44.0    91    2.8   318     4.0   1023.4    0.00 
  38    6:50   0.00   44.6    90    3.5   311     4.4   1023.7    0.00 
  38    7:00   0.00   45.2    88    4.3   320     5.9   1023.7    0.00 
  38    7:10   0.01   45.5    87    4.6   331     5.8   1023.7    0.00 
  38    7:20   0.02   45.1    87    4.8   333     6.3   1023.7    0.00 
  38    7:30   0.04   45.6    86    4.9    11     7.2   1023.7    0.00 
  38    7:40   0.06   43.5    88    4.3    66     5.6   1023.7    0.00 
  38    7:50   0.08   43.8    89    1.2    75     3.7   1023.7    0.00 
  38    8:00   0.11   45.1    87    1.7    50     5.0   1024.0    0.00 
  38    8:10   0.13   44.4    91    4.7    45     6.6   1024.0    0.00 
  38    8:20   0.16   45.1    92    4.5    27     7.5   1024.0    0.00 
  38    8:30   0.19   46.2    91    6.0    16     7.5   1024.0    0.00 
  38    8:40   0.22   47.2    90    7.2    10     9.4   1024.0    0.00 
  38    8:50   0.24   48.5    87    8.5    16     9.9   1024.0    0.00 
  38    9:00   0.27   49.2    85    9.7    20    11.7   1023.7    0.00 
  38    9:10   0.30   49.5    84   10.5    22    12.5   1023.7    0.00 
  38    9:20   0.33   49.8    84   10.5    26    12.3   1023.7    0.00 
  38    9:30   0.35   49.8    84   11.7    20    14.6   1023.7    0.00 
  38    9:40   0.38   50.3    84   10.9    19    14.0   1023.7    0.00 
  38    9:50   0.40   50.5    86   10.3    28    12.7   1023.7    0.00 
  38   10:00   0.43   50.8    85    8.9    28    11.0   1023.7    0.00 
  38   10:10   0.45   51.5    84    9.5    30    10.8   1023.7    0.00 
  38   10:20   0.48   52.7    83   10.1    39    11.8   1023.7    0.00 
  38   10:30   0.51   53.8    81    8.8    32    10.3   1023.7    0.00 
  38   10:40   0.53   54.3    80    9.9    30    11.8   1023.7    0.00 
  38   10:50   0.53   55.1    78   11.2    32    14.0   1023.4    0.00 
  38   11:00   0.55   55.7    75   12.8    32    15.4   1023.4    0.00 
  38   11:10   0.58   56.9    71   12.1    38    15.2   1023.4    0.00 
  38   11:20   0.60   57.1    69   10.3    28    13.7   1023.4    0.00 
  38   11:30   0.59   57.5    68   12.4    25    15.1   1023.0    0.00 
  38   11:40   0.50   57.8    66   13.4    27    16.0   1023.0    0.00 
  38   11:50   0.55   58.3    64   14.1    24    16.3   1022.7    0.00 
  38   12:00   0.56   58.8    62   14.6    24    17.3   1022.7    0.00 
  38   12:10   0.59   59.2    64   12.8    32    16.5   1022.4    0.00 
  38   12:20   0.58   60.3    64   11.4    44    14.4   1022.4    0.00 
  38   12:30   0.57   61.0    64   11.3    43    14.7   1022.0    0.00 
  38   12:40   0.57   61.1    63   11.7    38    15.6   1021.7    0.00 
  38   12:50   0.57   61.2    62   12.9    40    17.4   1021.7    0.00 
  38   13:00   0.57   62.0    61   12.0    47    15.7   1021.7    0.00 
  38   13:10   0.56   62.5    62   11.5    57    15.1   1021.3    0.00 
  38   13:20   0.56   62.7    61   10.9    53    13.5   1021.3    0.00 
  38   13:30   0.55   63.0    60   10.7    54    14.4   1021.0    0.00 
  38   13:40   0.53   63.5    60   10.0    52    13.5   1021.0    0.00 
  38   13:50   0.52   63.7    60   10.2    44    13.7   1021.0    0.00 
  38   14:00   0.51   64.4    58   11.5    49    15.0   1020.7    0.00 
  38   14:10   0.49   64.7    58   10.8    54    15.9   1020.7    0.00 
  38   14:20   0.47   64.8    57   11.2    62    14.1   1020.7    0.00 
  38   14:30   0.46   65.1    56   10.7    65    13.4   1020.7    0.00 
  38   14:40   0.43   65.7    56   11.1    58    14.8   1020.7    0.00 
  38   14:50   0.41   66.2    56   11.1    63    15.5   1020.3    0.00 
  38   15:00   0.39   66.4    55   11.2    62    14.7   1020.3    0.00 
  38   15:10   0.36   66.3    56   10.6    68    13.4   1020.3    0.00 
  38   15:20   0.34   66.3    58   11.0    77    13.4   1020.3    0.00 
  38   15:30   0.32   66.2    57   10.9    78    13.8   1020.3    0.00 
  38   15:40   0.29   66.1    58   11.7    81    14.8   1020.3    0.00 
  38   15:50   0.26   66.1    58   10.7    80    13.7   1020.3    0.00 
  38   16:00   0.23   65.8    58   10.3    81    13.3   1020.3    0.00 
  38   16:10   0.20   65.7    58   10.4    81    12.6   1020.3    0.00 
  38   16:20   0.18   65.3    60    9.9    85    12.3   1020.3    0.00 
  38   16:30   0.15   65.1    60   10.7    85    13.0   1020.3    0.00 
  38   16:40   0.12   64.8    62    9.2    91    12.1   1020.3    0.00 
  38   16:50   0.10   64.4    63    7.7    97    10.8   1020.3    0.00 
  38   17:00   0.07   63.8    65    5.7    97     6.9   1020.7    0.00 
  38   17:10   0.05   62.9    68    5.2    94     7.0   1020.7    0.00 
  38   17:20   0.03   61.4    71    5.6   103     6.4   1020.7    0.00 
  38   17:30   0.01   60.0    75    4.5   115     5.1   1020.7    0.00 
  38   17:40   0.01   58.8    77    5.4   111     7.6   1020.3    0.00 
  38   17:50   0.00   58.4    76    4.3   102     5.5   1020.3    0.00 
  38   18:00   0.00   58.5    72    4.5   114     6.6   1020.3    0.00 
  38   18:10   0.00   56.7    77    4.2   101     5.7   1020.3    0.00 
  38   18:20   0.00   55.9    81    2.7    68     3.7   1020.3    0.00 
  38   18:30   0.00   56.0    80    3.5    81     4.9   1020.3    0.00 
  38   18:40   0.00   54.7    81    3.9    79     5.0   1020.3    0.00 
  38   18:50   0.00   54.8    81    2.9    72     3.8   1020.3    0.00 
  38   19:00   0.00   55.4    83    3.1    62     4.0   1020.3    0.00 
  38   19:10   0.00   55.8    82    2.7    49     3.6   1020.3    0.00 
  38   19:20   0.00   55.5    84    2.8    48     3.8   1020.3    0.00 
  38   19:30   0.00   55.1    84    3.1    29     4.5   1020.3    0.00 
  38   19:40   0.00   54.4    87    4.1    37     5.7   1020.7    0.00 
  38   19:50   0.00   54.2    87    4.8    32     6.4   1020.7    0.00 
  38   20:00   0.00   54.6    86    5.5    28     7.1   1020.7    0.00 
  38   20:10   0.00   54.1    86    5.7    28     6.5   1020.7    0.00 
  38   20:20   0.00   53.9    87    6.2    26     7.5   1021.0    0.00 
  38   20:30   0.00   53.9    87    7.1    26     7.8   1021.0    0.00 
  38   20:40   0.00   53.0    88    7.5    23     9.0   1021.0    0.00 
  38   20:50   0.00   52.0    90    7.3    19     8.3   1021.3    0.00 
  38   21:00   0.00   51.7    91    7.4    23     8.5   1021.3    0.00 
  38   21:10   0.00   51.9    91    7.7    22     8.3   1021.3    0.00 
  38   21:20   0.00   51.8    90    7.5    19     8.3   1021.3    0.00 
  38   21:30   0.00   51.4    91    8.0    18     8.9   1021.3    0.00 
  38   21:40   0.00   50.3    92    6.8     6     8.3   1021.3    0.00 
  38   21:50   0.00   50.0    92    6.8   359     7.6   1021.7    0.00 
  38   22:00   0.00   50.4    92    7.1   350     8.3   1021.7    0.00 
  38   22:10   0.00   51.2    91    6.0   346     8.1   1021.7    0.00 
  38   22:20   0.00   50.9    92    6.4   332     7.4   1022.0    0.00 
  38   22:30   0.00   50.5    92    6.5   333     8.0   1021.7    0.00 
  38   22:40   0.00   50.2    92    6.4   333     6.9   1021.7    0.00 
  38   22:50   0.00   49.9    93    5.4   340     7.2   1022.0    0.00 
  38   23:00   0.00   49.7    93    5.4   334     6.2   1022.0    0.00 
  38   23:10   0.00   50.1    93    5.7   331     6.7   1022.4    0.00 
  38   23:20   0.00   50.3    92    5.8   336     6.7   1022.4    0.00 
  38   23:30   0.00   50.4    92    3.9   346     5.7   1022.4    0.00 
  38   23:40   0.00   49.6    92    4.3   342     5.8   1022.4    0.00 
  38   23:50   0.00   49.8    93    4.9   354     6.0   1022.4    0.00 
  39    0:00   0.00   50.5    92    5.9   353     7.1   1022.0    0.00 
  39    0:10   0.00   49.4    91    4.4   337     6.1   1022.4    0.00 
  39    0:20   0.00   49.3    93    4.0   344     5.2   1022.4    0.00 
  39    0:30   0.00   50.4    92    4.1     3     6.4   1022.4    0.00 
  39    0:40   0.00   50.7    90    5.8   352     6.6   1022.0    0.00 
  39    0:50   0.00   50.8    90    5.7     7     7.5   1022.0    0.00 
  39    1:00   0.00   48.9    90    6.2    22     7.0   1022.0    0.00 
  39    1:10   0.00   50.8    90    7.2    26     8.3   1022.0    0.00 
  39    1:20   0.00   48.5    89    5.8    36     6.9   1022.0    0.00 
  39    1:30   0.00   45.2    92    4.6    71     5.7   1022.0    0.00 
  39    1:40   0.00   44.0    96    2.2    34     3.9   1022.0    0.00 
  39    1:50   0.00   45.9    97    1.5   348     2.6   1022.0    0.00 
  39    2:00   0.00   46.2    96    2.0    15     3.4   1022.0    0.00 
  39    2:10   0.00   45.2    96    1.8    41     2.9   1022.0    0.00 
  39    2:20   0.00   44.8    97    2.7    18     3.3   1022.0    0.00 
  39    2:30   0.00   45.3    97    2.1   340     2.8   1022.0    0.00 
  39    2:40   0.00   45.7    97    2.4   314     3.6   1022.0    0.00 
  39    2:50   0.00   45.7    98    2.8   329     3.4   1022.0    0.00 
  39    3:00   0.00   46.3    98    2.8   338     3.5   1022.0    0.00 
  39    3:10   0.00   46.0    97    2.3    18     3.6   1022.0    0.00 
  39    3:20   0.00   43.3    97    2.3    41     3.4   1022.0    0.00 
  39    3:30   0.00   41.6    98    3.5    81     4.8   1022.0    0.00 
  39    3:40   0.00   41.9    99    3.7    90     4.5   1022.0    0.00 
  39    3:50   0.00   42.2    99    3.6    93     4.7   1022.4    0.00 
  39    4:00   0.00   42.3    98    3.8    95     4.7   1022.0    0.00 
  39    4:10   0.00   42.3    99    4.1    95     4.9   1022.4    0.00 
  39    4:20   0.00   42.5    99    3.9   101     4.7   1022.0    0.00 
  39    4:30   0.00   43.0   100    4.6   100     6.6   1022.4    0.00 
  39    4:40   0.00   43.1   100    6.2    97     7.1   1022.4    0.00 
  39    4:50   0.00   43.7   100    8.1    94     9.7   1022.4    0.00 
  39    5:00   0.00   44.0   100    8.1    82     9.3   1022.4    0.00 

Return to Jepson Prairie Reserve graphs page.


Western Regional Climate Center,wrcc@dri.edu